Decoded Metar for KFVE (FRENCHVILLE in ME, USA) (IATA:FVE) | Meteo·Mobile Aviation Weather
aviador You're here:

KFVE Decoded Metar

FRENCHVILLE in ME, USA
Report Time2018-10-22 14:53:00
UTC Time2018-10-22 15:08:06
Flight Rules vfr VFR
Wind270° at 19 Gusting to 24 kt
W.Decomp.*RWY 32: 16.1 kt HW 10.1 kt LCW
W.Rank270° ranks 15
Current wind is above 270° avg. (9.2)
Visibility9999 m
Phenomena:N/A
Clouds:Overcast 040 Hf
Expected CloudBase > 4,000 ft AGL from Temp-Dew spread
Ceiling4,000 ft
Temp01°C (ISA -12)
Dew Point-9°C (48% RH)
AAT-8.8°C
QNH1013 hPa
Density Alt-430 ft
Elevation988 ft
Report Wrong Elevation
Raw Report
KFVE 221453Z AUTO 27019G24KT 10SM OVC040 01/M09 A2990 RMK AO2 PK
WND 28028/1429 SLP134 T00061094 51012=

Extra information for KFVE:More info

Metar Taf Metar & Taf Last 4 Metars F.Rules Stats Wind Profile Meteogram Temp Stats Airport Information Weather charts Add Link Nearby VenuesMetar ALERT Operation Metar Decoded Social comments

AIRNAV info for KFVE